createdAt,value
2018-12-16T00:01:33.691Z,98061.73
2018-12-16T00:04:06.063Z,98056.63
2018-12-16T00:06:38.465Z,98051.07
2018-12-16T00:09:10.780Z,98048.44
2018-12-16T00:11:43.079Z,98047.54
2018-12-16T00:14:15.430Z,98047.23
2018-12-16T00:16:47.861Z,98042.24
2018-12-16T00:19:20.179Z,98041.36
2018-12-16T00:21:52.551Z,98023.61
2018-12-16T00:24:24.854Z,98017.40
2018-12-16T00:27:08.898Z,98017.86
2018-12-16T00:29:41.299Z,98016.20
2018-12-16T00:32:13.622Z,98023.19
2018-12-16T00:34:45.938Z,98015.27
2018-12-16T00:37:18.237Z,98014.13
2018-12-16T00:39:50.544Z,98018.09
2018-12-16T00:42:22.825Z,98012.45
2018-12-16T00:44:55.127Z,98014.45
2018-12-16T00:47:27.373Z,98009.85
2018-12-16T00:49:59.649Z,97997.55
2018-12-16T00:52:36.501Z,98004.30
2018-12-16T00:55:06.508Z,98005.86
2018-12-16T00:57:38.773Z,98002.75
2018-12-16T01:00:13.663Z,97996.53
2018-12-16T01:02:45.924Z,97997.66
2018-12-16T01:05:18.188Z,98008.27
2018-12-16T01:07:50.445Z,98006.09
2018-12-16T01:10:22.772Z,97993.61
2018-12-16T01:12:55.086Z,97999.72
2018-12-16T01:15:27.356Z,97992.73
2018-12-16T01:17:59.599Z,98003.66
2018-12-16T01:20:31.866Z,97991.31
2018-12-16T01:23:04.168Z,97984.42
2018-12-16T01:25:36.439Z,97988.15
2018-12-16T01:28:08.676Z,97990.39
2018-12-16T01:30:40.997Z,97986.86
2018-12-16T01:33:13.270Z,97975.64
2018-12-16T01:35:45.552Z,97969.87
2018-12-16T01:38:17.790Z,97968.68
2018-12-16T01:40:50.092Z,97973.05
2018-12-16T01:43:22.436Z,97973.39
2018-12-16T01:45:54.732Z,97976.52
2018-12-16T01:48:27.015Z,97975.80
2018-12-16T01:50:59.322Z,97984.35
2018-12-16T01:53:31.620Z,97985.98
2018-12-16T01:56:03.887Z,97974.34
2018-12-16T01:58:36.120Z,97980.91
2018-12-16T02:01:08.355Z,97986.09
2018-12-16T02:03:40.589Z,97980.17
2018-12-16T02:06:13.120Z,97963.84
2018-12-16T02:08:45.388Z,97972.39
2018-12-16T02:11:17.655Z,97975.88
2018-12-16T02:13:49.915Z,97976.55
2018-12-16T02:16:22.169Z,97963.79
2018-12-16T02:18:54.424Z,97967.28
2018-12-16T02:21:26.719Z,97961.81
2018-12-16T02:23:59.001Z,97961.84
2018-12-16T02:26:31.282Z,97953.85
2018-12-16T02:29:03.511Z,97944.25
2018-12-16T02:31:35.775Z,97932.72
2018-12-16T02:34:08.013Z,97916.95
2018-12-16T02:36:40.255Z,97913.08
2018-12-16T02:39:12.497Z,97906.52
2018-12-16T02:41:44.835Z,97895.00
2018-12-16T02:44:17.116Z,97898.11
2018-12-16T02:46:49.356Z,97902.39
2018-12-16T02:49:21.660Z,97897.64
2018-12-16T02:51:53.877Z,97892.19
2018-12-16T02:54:26.127Z,97889.59
2018-12-16T02:56:58.493Z,97880.77
2018-12-16T02:59:30.780Z,97876.33
2018-12-16T03:02:03.016Z,97868.75
2018-12-16T03:04:35.309Z,97868.35
2018-12-16T03:07:07.613Z,97863.36
2018-12-16T03:09:39.864Z,97853.46
2018-12-16T03:12:12.101Z,97849.97
2018-12-16T03:14:44.368Z,97847.14
2018-12-16T03:17:16.609Z,97847.02
2018-12-16T03:19:48.876Z,97850.78
2018-12-16T03:22:21.135Z,97844.00
2018-12-16T03:24:53.350Z,97844.27
2018-12-16T03:27:25.624Z,97855.01
2018-12-16T03:29:57.924Z,97849.00
2018-12-16T03:32:30.245Z,97843.87
2018-12-16T03:35:02.633Z,97833.28
2018-12-16T03:37:34.911Z,97835.20
2018-12-16T03:40:07.272Z,97834.23
2018-12-16T03:42:39.479Z,97822.61
2018-12-16T03:45:11.744Z,97812.31
2018-12-16T03:47:43.942Z,97807.58
2018-12-16T03:50:16.265Z,97812.22
2018-12-16T03:52:48.494Z,97801.97
2018-12-16T03:55:20.772Z,97794.60
2018-12-16T03:57:53.017Z,97787.36
2018-12-16T04:00:25.265Z,97777.16
2018-12-16T04:02:57.492Z,97772.22
2018-12-16T04:05:29.754Z,97769.70
2018-12-16T04:08:02.036Z,97767.56
2018-12-16T04:10:34.298Z,97760.75
2018-12-16T04:13:06.529Z,97756.77
2018-12-16T04:15:38.854Z,97751.16
2018-12-16T04:18:11.064Z,97746.02
2018-12-16T04:20:43.335Z,97739.41
2018-12-16T04:23:15.574Z,97743.17
2018-12-16T04:25:47.786Z,97734.84
2018-12-16T04:28:20.165Z,97733.95
2018-12-16T04:30:52.437Z,97733.50
2018-12-16T04:33:24.659Z,97728.45
2018-12-16T04:35:56.905Z,97724.11
2018-12-16T04:38:29.187Z,97718.58
2018-12-16T04:41:01.547Z,97724.55
2018-12-16T04:43:33.807Z,97720.71
2018-12-16T04:46:06.204Z,97716.81
2018-12-16T04:48:38.566Z,97712.60
2018-12-16T04:51:10.844Z,97712.01
2018-12-16T04:53:43.106Z,97710.16
2018-12-16T04:56:15.337Z,97711.91
2018-12-16T04:58:47.561Z,97706.77
2018-12-16T05:01:19.799Z,97700.43
2018-12-16T05:03:52.076Z,97703.25
2018-12-16T05:06:24.296Z,97713.13
2018-12-16T05:08:56.535Z,97713.34
2018-12-16T05:11:28.770Z,97716.82
2018-12-16T05:14:01.048Z,97705.64
2018-12-16T05:16:33.274Z,97696.66
2018-12-16T05:19:05.560Z,97688.84
2018-12-16T05:21:37.904Z,97684.08
2018-12-16T05:24:10.148Z,97683.23
2018-12-16T05:26:42.408Z,97671.20
2018-12-16T05:29:14.668Z,97671.56
2018-12-16T05:31:46.948Z,97678.61
2018-12-16T05:34:19.200Z,97683.27
2018-12-16T05:36:52.174Z,97681.45
2018-12-16T05:39:24.744Z,97678.64
2018-12-16T05:41:56.947Z,97686.09
2018-12-16T05:44:29.212Z,97680.39
2018-12-16T05:47:01.447Z,97686.34
2018-12-16T05:49:33.829Z,97695.64
2018-12-16T05:52:06.071Z,97693.52
2018-12-16T05:54:38.344Z,97689.36
2018-12-16T05:57:10.567Z,97694.30
2018-12-16T05:59:42.781Z,97697.66
2018-12-16T06:02:15.014Z,97692.09
2018-12-16T06:04:47.253Z,97693.72
2018-12-16T06:07:19.517Z,97696.06
2018-12-16T06:09:51.737Z,97694.39
2018-12-16T06:12:24.023Z,97688.87
2018-12-16T06:14:56.254Z,97690.17
2018-12-16T06:17:28.487Z,97692.02
2018-12-16T06:20:00.707Z,97695.19
2018-12-16T06:22:32.965Z,97691.13
2018-12-16T06:25:05.714Z,97685.89
2018-12-16T06:27:38.007Z,97684.77
2018-12-16T06:30:10.959Z,97675.78
2018-12-16T06:35:29.983Z,97678.30
2018-12-16T06:38:02.285Z,97672.02
2018-12-16T06:40:34.612Z,97662.36
2018-12-16T06:43:06.924Z,97666.27
2018-12-16T06:45:39.180Z,97663.52
2018-12-16T06:48:11.476Z,97660.70
2018-12-16T06:50:43.838Z,97662.83
2018-12-16T06:53:16.231Z,97661.75
2018-12-16T06:55:48.485Z,97659.09
2018-12-16T06:58:20.780Z,97653.86
2018-12-16T07:00:53.178Z,97648.24
2018-12-16T07:03:25.466Z,97651.55
2018-12-16T07:05:57.700Z,97648.23
2018-12-16T07:08:30.005Z,97646.69
2018-12-16T07:11:02.240Z,97638.56
2018-12-16T07:13:34.602Z,97642.83
2018-12-16T07:16:06.984Z,97647.56
2018-12-16T07:18:39.450Z,97648.07
2018-12-16T07:21:11.796Z,97642.47
2018-12-16T07:23:44.031Z,97638.86
2018-12-16T07:26:16.341Z,97635.98
2018-12-16T07:28:48.573Z,97639.59
2018-12-16T07:31:20.876Z,97646.59
2018-12-16T07:33:53.237Z,97644.05
2018-12-16T07:36:25.519Z,97656.84
2018-12-16T07:38:57.796Z,97650.33
2018-12-16T07:41:30.212Z,97658.42
2018-12-16T07:44:02.597Z,97658.73
2018-12-16T07:46:34.896Z,97659.24
2018-12-16T07:51:54.202Z,97655.89
2018-12-16T07:54:26.478Z,97669.74
2018-12-16T07:56:58.823Z,97666.91
2018-12-16T07:59:31.247Z,97674.41
2018-12-16T08:02:03.577Z,97675.95
2018-12-16T08:04:35.846Z,97679.75
2018-12-16T08:07:08.298Z,97676.58
2018-12-16T08:09:40.668Z,97685.48
2018-12-16T08:12:12.924Z,97674.98
2018-12-16T08:14:45.183Z,97685.83
2018-12-16T08:17:17.484Z,97690.70
2018-12-16T08:19:49.828Z,97684.41
2018-12-16T08:22:22.157Z,97689.63
2018-12-16T08:24:54.413Z,97695.38
2018-12-16T08:27:26.703Z,97697.19
2018-12-16T08:29:58.991Z,97702.62
2018-12-16T08:32:31.361Z,97710.05
2018-12-16T08:35:04.397Z,97705.39
2018-12-16T08:37:36.724Z,97707.05
2018-12-16T08:40:09.231Z,97702.78
2018-12-16T08:42:41.520Z,97702.19
2018-12-16T08:45:13.849Z,97708.65
2018-12-16T08:47:46.160Z,97701.33
2018-12-16T08:50:18.484Z,97710.28
2018-12-16T08:52:50.795Z,97701.61
2018-12-16T08:55:23.112Z,97703.90
2018-12-16T08:57:55.466Z,97704.71
2018-12-16T09:00:27.732Z,97707.95
2018-12-16T09:03:00.427Z,97705.38
2018-12-16T09:05:32.921Z,97705.53
2018-12-16T09:08:05.355Z,97703.73
2018-12-16T09:10:38.681Z,97711.30
2018-12-16T09:13:10.981Z,97708.72
2018-12-16T09:15:43.338Z,97707.36
2018-12-16T09:18:15.649Z,97713.55
2018-12-16T09:20:48.016Z,97717.47
2018-12-16T09:23:20.991Z,97714.70
2018-12-16T09:25:53.325Z,97729.30
2018-12-16T09:28:25.633Z,97727.38
2018-12-16T09:30:58.262Z,97724.09
2018-12-16T09:33:30.835Z,97720.87
2018-12-16T09:36:03.149Z,97717.55
2018-12-16T09:38:35.410Z,97718.20
2018-12-16T09:41:07.706Z,97724.44
2018-12-16T09:43:40.067Z,97723.28
2018-12-16T09:46:12.382Z,97725.47
2018-12-16T09:48:44.675Z,97732.37
2018-12-16T09:51:17.043Z,97726.12
2018-12-16T09:53:49.591Z,97732.09
2018-12-16T09:56:22.292Z,97729.34
2018-12-16T09:58:54.547Z,97730.13
2018-12-16T10:01:26.889Z,97727.76
2018-12-16T10:03:59.201Z,97729.20
2018-12-16T10:06:31.647Z,97725.91
2018-12-16T10:09:07.236Z,97724.04
2018-12-16T10:11:39.625Z,97734.38
2018-12-16T10:14:11.924Z,97723.72
2018-12-16T10:16:44.330Z,97720.04
2018-12-16T10:19:16.613Z,97722.34
2018-12-16T10:21:48.888Z,97723.75
2018-12-16T10:24:21.159Z,97730.11
2018-12-16T10:26:53.624Z,97722.94
2018-12-16T10:29:25.892Z,97737.39
2018-12-16T10:31:58.327Z,97734.49
2018-12-16T10:34:30.638Z,97741.67
2018-12-16T10:37:02.978Z,97741.00
2018-12-16T10:39:35.248Z,97735.02
2018-12-16T10:42:07.576Z,97737.50
2018-12-16T10:44:39.914Z,97736.55
2018-12-16T10:47:12.193Z,97730.34
2018-12-16T10:49:44.524Z,97722.59
2018-12-16T10:52:16.943Z,97713.20
2018-12-16T10:54:49.305Z,97716.14
2018-12-16T10:57:21.645Z,97716.56
2018-12-16T10:59:53.967Z,97714.19
2018-12-16T11:02:26.354Z,97717.24
2018-12-16T11:04:58.742Z,97720.41
2018-12-16T11:07:31.032Z,97719.71
2018-12-16T11:10:03.641Z,97718.33
2018-12-16T11:12:36.469Z,97717.22
2018-12-16T11:15:08.809Z,97714.23
2018-12-16T11:17:41.172Z,97713.48
2018-12-16T11:20:13.554Z,97713.40
2018-12-16T11:22:45.822Z,97713.52
2018-12-16T11:25:18.429Z,97709.47
2018-12-16T11:27:50.881Z,97716.56
2018-12-16T11:30:23.336Z,97719.20
2018-12-16T11:32:55.603Z,97719.46
2018-12-16T11:35:27.952Z,97715.55
2018-12-16T11:38:00.233Z,97714.30
2018-12-16T11:40:33.397Z,97711.04
2018-12-16T11:43:05.693Z,97705.97
2018-12-16T11:45:38.632Z,97696.55
2018-12-16T11:48:11.035Z,97700.23
2018-12-16T11:50:43.429Z,97694.93
2018-12-16T11:53:15.702Z,97692.42
2018-12-16T11:55:48.012Z,97695.45
2018-12-16T11:58:20.320Z,97696.98
2018-12-16T12:00:52.599Z,97690.69
2018-12-16T12:03:24.908Z,97688.42
2018-12-16T12:05:57.301Z,97687.03
2018-12-16T12:08:29.615Z,97690.95
2018-12-16T12:11:01.936Z,97680.33
2018-12-16T12:13:34.241Z,97683.00
2018-12-16T12:16:06.585Z,97687.04
2018-12-16T12:18:38.888Z,97681.11
2018-12-16T12:21:11.329Z,97686.91
2018-12-16T12:23:43.832Z,97694.48
2018-12-16T12:26:16.187Z,97696.27
2018-12-16T12:28:48.496Z,97692.20
2018-12-16T12:31:20.917Z,97692.09
2018-12-16T12:33:53.314Z,97691.09
2018-12-16T12:36:25.637Z,97690.95
2018-12-16T12:38:58.123Z,97694.36
2018-12-16T12:41:30.613Z,97695.23
2018-12-16T12:44:03.171Z,97696.89
2018-12-16T12:46:35.526Z,97692.47
2018-12-16T12:49:07.820Z,97689.42
2018-12-16T12:51:40.201Z,97682.48
2018-12-16T12:54:12.502Z,97691.33
2018-12-16T12:56:44.832Z,97690.20
2018-12-16T12:59:17.141Z,97678.84
2018-12-16T13:01:49.467Z,97678.70
2018-12-16T13:04:22.366Z,97680.45
2018-12-16T13:06:54.809Z,97686.91
2018-12-16T13:09:27.286Z,97692.73
2018-12-16T13:11:59.613Z,97696.88
2018-12-16T13:14:31.936Z,97697.64
2018-12-16T13:17:04.370Z,97703.47
2018-12-16T13:19:36.704Z,97700.80
2018-12-16T13:22:08.994Z,97700.31
2018-12-16T13:24:52.790Z,97704.09
2018-12-16T13:27:25.108Z,97703.56
2018-12-16T13:29:57.398Z,97706.86
2018-12-16T13:32:29.727Z,97702.97
2018-12-16T13:35:02.061Z,97703.56
2018-12-16T13:37:34.372Z,97708.62
2018-12-16T13:40:07.837Z,97718.47
2018-12-16T13:42:40.171Z,97717.83
2018-12-16T13:45:12.526Z,97718.75
2018-12-16T13:47:44.931Z,97716.57
2018-12-16T13:50:17.317Z,97723.80
2018-12-16T13:52:49.638Z,97724.42
2018-12-16T13:55:21.973Z,97731.48
2018-12-16T13:57:54.642Z,97737.41
2018-12-16T14:00:26.988Z,97733.90
2018-12-16T14:02:59.383Z,97722.64
2018-12-16T14:05:31.884Z,97726.43
2018-12-16T14:08:04.321Z,97732.38
2018-12-16T14:10:36.633Z,97741.33
2018-12-16T14:13:08.966Z,97738.41
2018-12-16T14:15:41.284Z,97736.66
2018-12-16T14:18:14.597Z,97741.46
2018-12-16T14:20:46.897Z,97748.02
2018-12-16T14:23:19.220Z,97751.31
2018-12-16T14:25:51.561Z,97756.09
2018-12-16T14:28:23.865Z,97762.80
2018-12-16T14:30:56.183Z,97758.52
2018-12-16T14:33:28.495Z,97761.92
2018-12-16T14:36:00.860Z,97752.06
2018-12-16T14:38:33.957Z,97757.34
2018-12-16T14:41:06.284Z,97754.95
2018-12-16T14:43:38.584Z,97761.16
2018-12-16T14:46:11.785Z,97757.99
2018-12-16T14:48:44.120Z,97760.13
2018-12-16T14:51:16.596Z,97769.48
2018-12-16T14:53:48.960Z,97778.32
2018-12-16T14:56:21.241Z,97772.50
2018-12-16T14:58:53.673Z,97779.31
2018-12-16T15:01:26.038Z,97783.09
2018-12-16T15:03:58.429Z,97788.30
2018-12-16T15:06:30.728Z,97787.14
2018-12-16T15:09:05.108Z,97787.27
2018-12-16T15:11:38.070Z,97788.77
2018-12-16T15:14:10.518Z,97787.39
2018-12-16T15:16:42.850Z,97783.24
2018-12-16T15:19:15.185Z,97786.87
2018-12-16T15:21:47.506Z,97790.05
2018-12-16T15:24:19.905Z,97790.41
2018-12-16T15:26:52.841Z,97797.36
2018-12-16T15:29:25.301Z,97809.60
2018-12-16T15:31:58.203Z,97811.50
2018-12-16T15:34:30.550Z,97807.31
2018-12-16T15:37:03.761Z,97811.34
2018-12-16T15:39:36.087Z,97815.89
2018-12-16T15:42:08.461Z,97824.08
2018-12-16T15:44:40.798Z,97822.41
2018-12-16T15:47:13.163Z,97815.84
2018-12-16T15:49:45.548Z,97816.63
2018-12-16T15:52:17.920Z,97817.02
2018-12-16T15:54:50.286Z,97812.47
2018-12-16T15:57:22.628Z,97812.47
2018-12-16T15:59:54.999Z,97810.34
2018-12-16T16:02:27.354Z,97813.22
2018-12-16T16:04:59.730Z,97809.94
2018-12-16T16:07:34.641Z,97818.91
2018-12-16T16:10:08.574Z,97823.70
2018-12-16T16:12:41.523Z,97820.80
2018-12-16T16:15:14.558Z,97812.72
2018-12-16T16:17:47.040Z,97823.23
2018-12-16T16:20:20.474Z,97833.06
2018-12-16T16:22:53.421Z,97834.95
2018-12-16T16:25:25.757Z,97830.52
2018-12-16T16:27:58.900Z,97831.78
2018-12-16T16:30:31.241Z,97824.47
2018-12-16T16:33:03.768Z,97824.47
2018-12-16T16:35:36.101Z,97836.94
2018-12-16T16:38:08.503Z,97847.30
2018-12-16T16:40:41.191Z,97855.75
2018-12-16T16:43:14.102Z,97862.33
2018-12-16T16:45:46.471Z,97854.75
2018-12-16T16:48:18.841Z,97846.30
2018-12-16T16:50:51.197Z,97845.92
2018-12-16T16:53:23.607Z,97838.09
2018-12-16T16:55:55.934Z,97846.66
2018-12-16T16:58:28.293Z,97844.87
2018-12-16T17:01:00.672Z,97847.02
2018-12-16T17:03:33.951Z,97853.56
2018-12-16T17:06:06.358Z,97853.56
2018-12-16T17:08:38.780Z,97857.98
2018-12-16T17:11:11.471Z,97856.23
2018-12-16T17:13:44.376Z,97861.16
2018-12-16T17:16:16.688Z,97863.06
2018-12-16T17:18:49.394Z,97867.61
2018-12-16T17:21:21.784Z,97873.02
2018-12-16T17:23:54.139Z,97867.02
2018-12-16T17:26:29.988Z,97866.59
2018-12-16T17:29:00.989Z,97864.77
2018-12-16T17:31:33.328Z,97870.22
2018-12-16T17:34:05.734Z,97874.39
2018-12-16T17:36:38.073Z,97868.78
2018-12-16T17:39:10.396Z,97866.53
2018-12-16T17:41:42.709Z,97862.80
2018-12-16T17:44:15.229Z,97866.17
2018-12-16T17:46:47.549Z,97863.50
2018-12-16T17:49:19.915Z,97864.12
2018-12-16T17:51:52.231Z,97866.76
2018-12-16T17:54:24.626Z,97868.52
2018-12-16T17:56:56.992Z,97870.55
2018-12-16T17:59:29.336Z,97877.11
2018-12-16T18:02:02.219Z,97882.05
2018-12-16T18:04:34.547Z,97887.21
2018-12-16T18:07:07.053Z,97880.17
2018-12-16T18:09:39.458Z,97886.51
2018-12-16T18:12:12.072Z,97892.97
2018-12-16T18:14:44.422Z,97899.52
2018-12-16T18:17:16.803Z,97898.40
2018-12-16T18:19:49.138Z,97897.87
2018-12-16T18:22:21.641Z,97901.01
2018-12-16T18:24:53.982Z,97899.13
2018-12-16T18:27:26.328Z,97896.34
2018-12-16T18:29:58.759Z,97896.31
2018-12-16T18:32:31.093Z,97898.19
2018-12-16T18:35:04.042Z,97901.85
2018-12-16T18:37:36.713Z,97905.52
2018-12-16T18:40:09.156Z,97915.80
2018-12-16T18:42:41.667Z,97908.69
2018-12-16T18:45:14.196Z,97925.06
2018-12-16T18:47:46.630Z,97909.84
2018-12-16T18:50:19.019Z,97914.27
2018-12-16T18:52:51.461Z,97917.41
2018-12-16T18:55:23.814Z,97916.34
2018-12-16T18:57:57.110Z,97922.30
2018-12-16T19:00:29.588Z,97921.27
2018-12-16T19:03:02.047Z,97922.00
2018-12-16T19:05:34.487Z,97922.00
2018-12-16T19:08:06.898Z,97923.22
2018-12-16T19:10:39.318Z,97927.16
2018-12-16T19:13:11.836Z,97922.50
2018-12-16T19:15:44.293Z,97921.00
2018-12-16T19:18:16.664Z,97919.75
2018-12-16T19:20:49.059Z,97914.77
2018-12-16T19:23:21.448Z,97922.45
2018-12-16T19:25:53.969Z,97919.66
2018-12-16T19:28:26.366Z,97923.68
2018-12-16T19:30:58.734Z,97919.28
2018-12-16T19:33:31.102Z,97924.59
2018-12-16T19:36:03.515Z,97921.20
2018-12-16T19:38:35.855Z,97923.91
2018-12-16T19:41:08.529Z,97930.13
2018-12-16T19:43:41.222Z,97928.45
2018-12-16T19:46:13.782Z,97925.66
2018-12-16T19:48:46.162Z,97924.28
2018-12-16T19:51:18.637Z,97934.11
2018-12-16T19:53:51.050Z,97932.70
2018-12-16T19:56:23.630Z,97936.22
2018-12-16T19:58:56.571Z,97932.32
2018-12-16T20:01:28.974Z,97934.23
2018-12-16T20:04:07.065Z,97929.95
2018-12-16T20:06:46.476Z,97935.72
2018-12-16T20:09:18.845Z,97943.30
2018-12-16T20:11:51.362Z,97941.56
2018-12-16T20:14:23.679Z,97946.09
2018-12-16T20:16:56.166Z,97949.14
2018-12-16T20:19:28.669Z,97943.83
2018-12-16T20:22:01.227Z,97949.14
2018-12-16T20:24:33.594Z,97949.91
2018-12-16T20:27:11.864Z,97942.34
2018-12-16T20:29:40.382Z,97939.96
2018-12-16T20:32:12.962Z,97943.22
2018-12-16T20:34:45.384Z,97945.73
2018-12-16T20:37:17.802Z,97942.30
2018-12-16T20:39:50.227Z,97936.41
2018-12-16T20:42:22.534Z,97937.55
2018-12-16T20:44:54.973Z,97942.06
2018-12-16T20:47:27.355Z,97940.50
2018-12-16T20:49:59.880Z,97940.27
2018-12-16T20:52:32.306Z,97934.31
2018-12-16T20:55:05.431Z,97935.16
2018-12-16T20:57:37.756Z,97940.09
2018-12-16T21:00:10.389Z,97933.63
2018-12-16T21:02:42.758Z,97935.16
2018-12-16T21:05:15.097Z,97928.08
2018-12-16T21:07:47.441Z,97937.41
2018-12-16T21:10:19.845Z,97929.34
2018-12-16T21:15:55.096Z,97929.80
2018-12-16T21:18:30.286Z,97927.50
2018-12-16T21:21:02.760Z,97927.73
2018-12-16T21:23:35.282Z,97934.15
2018-12-16T21:26:07.697Z,97934.27
2018-12-16T21:28:40.360Z,97937.02
2018-12-16T21:31:17.858Z,97938.00
2018-12-16T21:33:55.059Z,97936.32
2018-12-16T21:36:31.741Z,97940.21
2018-12-16T21:39:07.312Z,97944.48
2018-12-16T21:41:39.869Z,97940.16
2018-12-16T21:44:13.785Z,97949.20
2018-12-16T21:46:46.219Z,97938.52
2018-12-16T21:49:19.340Z,97943.35
2018-12-16T21:51:54.228Z,97948.55
2018-12-16T21:54:27.697Z,97947.30
2018-12-16T21:57:05.790Z,97941.09
2018-12-16T21:59:38.474Z,97945.86
2018-12-16T22:02:10.964Z,97945.05
2018-12-16T22:04:43.243Z,97948.81
2018-12-16T22:07:15.640Z,97954.67
2018-12-16T22:09:47.955Z,97956.31
2018-12-16T22:12:20.286Z,97963.88
2018-12-16T22:14:52.585Z,97961.39
2018-12-16T22:17:24.918Z,97965.11
2018-12-16T22:19:57.240Z,97965.87
2018-12-16T22:22:29.535Z,97974.47
2018-12-16T22:25:01.848Z,97966.56
2018-12-16T22:27:40.055Z,97974.95
2018-12-16T22:30:08.907Z,97975.92
2018-12-16T22:32:41.192Z,97980.20
2018-12-16T22:35:13.447Z,97977.78
2018-12-16T22:37:45.794Z,97983.06
2018-12-16T22:40:18.162Z,97986.53
2018-12-16T22:42:50.518Z,97981.78
2018-12-16T22:45:22.801Z,97990.84
2018-12-16T22:47:55.107Z,97990.38
2018-12-16T22:50:27.415Z,97992.89
2018-12-16T22:52:59.713Z,97990.38
2018-12-16T22:55:32.041Z,97987.09
2018-12-16T22:58:04.395Z,97991.69
2018-12-16T23:00:41.342Z,97991.81
2018-12-16T23:03:13.603Z,97986.19
2018-12-16T23:05:45.931Z,97986.19
2018-12-16T23:08:18.180Z,97987.63
2018-12-16T23:10:50.555Z,97994.91
2018-12-16T23:13:22.785Z,97997.42
2018-12-16T23:15:55.087Z,97989.11
2018-12-16T23:18:27.387Z,97986.88
2018-12-16T23:20:59.728Z,97991.31
2018-12-16T23:23:32.014Z,97987.34
2018-12-16T23:26:04.408Z,97984.36
2018-12-16T23:28:36.834Z,97981.74
2018-12-16T23:31:09.131Z,97983.29
2018-12-16T23:33:41.460Z,97973.09
2018-12-16T23:36:13.788Z,97971.36
2018-12-16T23:38:46.073Z,97975.55
2018-12-16T23:41:18.407Z,97977.78
2018-12-16T23:43:50.652Z,97986.13
2018-12-16T23:46:22.929Z,97977.91
2018-12-16T23:48:55.173Z,97980.98
2018-12-16T23:51:27.457Z,97981.87
2018-12-16T23:53:59.753Z,97983.41
2018-12-16T23:56:32.032Z,97990.09
2018-12-16T23:59:04.284Z,97984.67
